Time;durP1;ratioP1;P1;durP2;ratioP2;P2;SDS_P1;SDS_P2;PMS_P1;PMS_P2;Temp;Humidity;BMP_temperature;BMP_pressure;BME280_temperature;BME280_humidity;BME280_pressure;Samples;Min_cycle;Max_cycle;Signal;HPM_P1;HPM_P2
2022/02/02 00:01:20;;;;;;;1.30;1.20;;;3.60;99.70;;;;;;5031703;28;20202;-80
2022/02/02 00:03:51;;;;;;;1.63;1.53;;;3.60;99.90;;;;;;5022577;28;20218;-81
2022/02/02 00:06:23;;;;;;;2.30;1.60;;;3.60;99.90;;;;;;5026920;28;20317;-79
2022/02/02 00:09:05;;;;;;;2.10;1.50;;;3.60;99.90;;;;;;5031146;28;20640;-78
2022/02/02 00:17:03;;;;;;;3.50;1.50;;;3.80;99.90;;;;;;5044836;28;20222;-79
2022/02/02 00:19:41;;;;;;;2.43;1.40;;;3.80;99.60;;;;;;5022873;28;20261;-78
2022/02/02 00:22:13;;;;;;;2.87;1.40;;;3.80;99.70;;;;;;5010353;28;20317;-79
2022/02/02 00:25:08;;;;;;;1.57;1.40;;;3.80;99.70;;;;;;5009007;28;20199;-79
2022/02/02 00:27:37;;;;;;;1.93;1.50;;;3.80;99.50;;;;;;5004237;28;20235;-79
2022/02/02 00:30:05;;;;;;;1.40;1.30;;;3.90;99.60;;;;;;5013123;28;20231;-79
2022/02/02 00:35:16;;;;;;;2.20;1.37;;;3.90;99.30;;;;;;4999745;28;20195;-78
2022/02/02 00:37:43;;;;;;;2.83;2.27;;;4.00;99.30;;;;;;5006047;28;20237;-80
2022/02/02 00:40:11;;;;;;;10.13;6.83;;;4.00;99.10;;;;;;5012915;28;20207;-78
2022/02/02 00:42:38;;;;;;;1.70;1.47;;;4.00;99.10;;;;;;5011829;28;20258;-79
2022/02/02 00:45:06;;;;;;;8.33;5.43;;;4.10;98.80;;;;;;5008328;28;20203;-78
2022/02/02 00:47:37;;;;;;;2.70;1.93;;;4.00;98.90;;;;;;5004737;28;20334;-79
2022/02/02 00:50:05;;;;;;;20.90;13.57;;;4.10;98.70;;;;;;5012147;28;20293;-80
2022/02/02 00:52:32;;;;;;;4.70;3.63;;;4.10;99.20;;;;;;5012130;28;20318;-78
2022/02/02 00:54:59;;;;;;;7.33;4.73;;;4.20;98.60;;;;;;5003153;28;20228;-82
2022/02/02 00:57:28;;;;;;;3.37;1.97;;;4.20;98.90;;;;;;4997128;28;20232;-78
2022/02/02 00:59:55;;;;;;;2.90;2.30;;;4.20;99.00;;;;;;5012032;28;20241;-81
2022/02/02 01:02:22;;;;;;;6.87;3.83;;;4.10;99.00;;;;;;5011227;28;20234;-79
2022/02/02 01:04:48;;;;;;;3.43;3.00;;;4.10;99.50;;;;;;5007589;28;20207;-82
2022/02/02 01:07:22;;;;;;;3.20;2.23;;;4.10;99.70;;;;;;5011301;28;20302;-81
2022/02/02 01:09:59;;;;;;;3.40;2.27;;;4.10;99.90;;;;;;5010307;28;20218;-82
2022/02/02 01:12:44;;;;;;;3.33;2.20;;;4.00;99.90;;;;;;5011153;28;20223;-79
2022/02/02 01:18:15;;;;;;;1.73;1.60;;;4.00;99.90;;;;;;5008236;28;20301;-81
2022/02/02 01:20:55;;;;;;;3.40;2.43;;;3.90;99.90;;;;;;5005439;28;20678;-80
2022/02/02 01:28:53;;;;;;;3.70;1.93;;;4.00;99.90;;;;;;5005436;28;20222;-80
2022/02/02 01:31:19;;;;;;;2.23;1.70;;;4.10;99.90;;;;;;5006801;28;20216;-79
2022/02/02 01:33:47;;;;;;;3.33;1.80;;;4.10;99.90;;;;;;5010646;28;20215;-81
2022/02/02 01:36:15;;;;;;;2.57;1.80;;;4.00;99.90;;;;;;5006760;28;20195;-83
2022/02/02 01:38:43;;;;;;;2.33;1.70;;;4.00;99.90;;;;;;5011430;28;20245;-79
2022/02/02 01:41:17;;;;;;;2.33;1.43;;;4.10;99.90;;;;;;5002854;28;20299;-79
2022/02/02 01:43:50;;;;;;;3.57;1.77;;;4.20;99.80;;;;;;4999379;28;20234;-80
2022/02/02 01:46:20;;;;;;;1.77;1.40;;;4.20;99.90;;;;;;5004529;28;20210;-80
2022/02/02 01:48:56;;;;;;;1.40;1.30;;;4.10;99.90;;;;;;5004574;28;20227;-80
2022/02/02 01:54:18;;;;;;;1.60;1.50;;;4.20;99.60;;;;;;5027529;28;20210;-80
2022/02/02 01:56:45;;;;;;;2.47;1.50;;;4.20;99.90;;;;;;5028710;28;20230;-79
2022/02/02 01:59:22;;;;;;;1.10;1.00;;;4.10;99.90;;;;;;5035228;28;20584;-79
2022/02/02 02:01:50;;;;;;;1.00;1.00;;;4.00;99.90;;;;;;5034326;28;20252;-82
2022/02/02 02:04:17;;;;;;;1.23;1.13;;;4.10;99.90;;;;;;5030652;28;20573;-80
2022/02/02 02:06:44;;;;;;;2.93;1.10;;;4.00;99.90;;;;;;5034353;28;20234;-80
2022/02/02 02:09:11;;;;;;;1.57;0.93;;;4.10;99.90;;;;;;5034168;28;20213;-79
2022/02/02 02:11:43;;;;;;;1.40;1.30;;;4.10;99.90;;;;;;5034535;28;20230;-80
2022/02/02 02:16:55;;;;;;;1.23;1.13;;;4.00;99.90;;;;;;5038223;28;20275;-83
2022/02/02 02:19:23;;;;;;;1.93;1.00;;;4.00;99.90;;;;;;5034766;28;20203;-80
2022/02/02 02:21:52;;;;;;;1.33;1.10;;;4.10;99.90;;;;;;5030812;28;20233;-81
2022/02/02 02:24:20;;;;;;;0.90;0.90;;;4.20;99.70;;;;;;5024815;28;20294;-80
2022/02/02 02:26:47;;;;;;;1.43;1.20;;;4.10;99.70;;;;;;5011055;28;20238;-79
2022/02/02 02:29:30;;;;;;;1.00;1.00;;;4.10;99.90;;;;;;5014205;28;20642;-79
2022/02/02 02:32:13;;;;;;;1.60;1.20;;;4.10;99.90;;;;;;5013567;28;20270;-80
2022/02/02 02:34:58;;;;;;;1.00;1.00;;;4.10;99.80;;;;;;5003980;28;20191;-79
2022/02/02 02:37:45;;;;;;;1.87;1.00;;;4.20;99.20;;;;;;5004450;28;20733;-79
2022/02/02 02:40:26;;;;;;;3.30;1.33;;;4.20;99.50;;;;;;5029319;28;20195;-79
2022/02/02 02:56:51;;;;;;;2.57;1.73;;;4.40;99.20;;;;;;5013583;28;20289;-79
2022/02/02 02:59:31;;;;;;;1.90;1.60;;;4.40;99.20;;;;;;5014249;28;20200;-80
2022/02/02 03:02:31;;;;;;;3.17;1.60;;;4.40;99.40;;;;;;5012416;28;20233;-79
2022/02/02 03:29:56;;;;;;;3.00;1.47;;;4.50;98.70;;;;;;5011752;28;20198;-81
2022/02/02 03:32:51;;;;;;;3.23;1.70;;;4.50;98.30;;;;;;5012495;28;20226;-83
2022/02/02 03:49:14;;;;;;;3.30;1.70;;;4.50;98.50;;;;;;5003500;28;20207;-80
2022/02/02 03:49:39;;;;;;;2.83;1.60;;;4.40;98.80;;;;;;5007299;28;20234;-79
2022/02/02 03:55:01;;;;;;;3.40;1.80;;;4.40;98.40;;;;;;5006326;28;20578;-79
2022/02/02 03:57:36;;;;;;;5.20;1.80;;;4.50;98.30;;;;;;5002331;28;20238;-81
2022/02/02 04:00:28;;;;;;;3.23;2.03;;;4.50;98.40;;;;;;5007003;28;20211;-79
2022/02/02 04:03:29;;;;;;;4.50;1.80;;;4.50;98.10;;;;;;5005539;28;20238;-79
2022/02/02 04:06:05;;;;;;;5.87;2.00;;;4.50;98.10;;;;;;5008592;28;20689;-80
2022/02/02 04:08:34;;;;;;;4.10;1.57;;;4.50;98.00;;;;;;5030673;28;20265;-79
2022/02/02 04:11:05;;;;;;;4.07;1.90;;;4.60;97.90;;;;;;5032516;28;20222;-79
2022/02/02 04:14:10;;;;;;;6.60;2.10;;;4.50;97.90;;;;;;5031765;28;20305;-79
2022/02/02 04:52:18;;;;;;;3.17;1.47;;;4.40;98.80;;;;;;5033374;28;20241;-79
2022/02/02 04:54:50;;;;;;;3.70;1.60;;;4.40;98.60;;;;;;5027596;28;20220;-82
2022/02/02 05:08:06;;;;;;;4.60;1.37;;;4.60;97.90;;;;;;5031056;28;20621;-78
2022/02/02 05:10:42;;;;;;;5.13;1.70;;;4.60;97.60;;;;;;5020958;28;20701;-82
2022/02/02 05:16:08;;;;;;;4.73;1.50;;;4.50;98.10;;;;;;5012617;28;20202;-81
2022/02/02 05:41:21;;;;;;;2.27;1.30;;;4.80;97.50;;;;;;5026982;28;20197;-81
2022/02/02 05:44:04;;;;;;;3.63;1.60;;;4.80;97.50;;;;;;5034547;28;20272;-81
2022/02/02 05:49:33;;;;;;;5.23;1.37;;;4.70;97.60;;;;;;5027427;28;20229;-82
2022/02/02 05:51:59;;;;;;;2.97;1.30;;;4.70;97.70;;;;;;5028883;28;20227;-81
2022/02/02 05:54:26;;;;;;;3.60;1.20;;;4.80;97.70;;;;;;5017932;28;20214;-79
2022/02/02 05:56:56;;;;;;;1.67;1.00;;;4.90;97.60;;;;;;5026302;28;20231;-82
2022/02/02 05:59:32;;;;;;;3.03;1.20;;;5.00;96.80;;;;;;5025032;28;20273;-82
2022/02/02 06:01:59;;;;;;;5.43;1.40;;;5.00;97.10;;;;;;5020949;28;20234;-80
2022/02/02 06:04:28;;;;;;;2.37;1.20;;;5.20;96.60;;;;;;5031746;28;20289;-81
2022/02/02 06:07:02;;;;;;;2.13;1.60;;;5.10;96.60;;;;;;5020370;28;20226;-81
2022/02/02 06:09:34;;;;;;;2.63;1.50;;;5.10;96.90;;;;;;5027485;28;20195;-80
2022/02/02 06:12:03;;;;;;;3.33;1.60;;;5.10;96.70;;;;;;5034028;28;20227;-80
2022/02/02 06:14:33;;;;;;;4.23;1.80;;;5.20;96.80;;;;;;5033974;28;20209;-80
2022/02/02 06:17:02;;;;;;;4.93;1.80;;;5.20;96.70;;;;;;5024552;28;20644;-80
2022/02/02 06:19:28;;;;;;;5.70;2.00;;;5.20;96.90;;;;;;5028866;28;20203;-81
2022/02/02 06:22:04;;;;;;;4.23;2.10;;;5.20;96.80;;;;;;5022241;28;20230;-81
2022/02/02 06:24:33;;;;;;;4.03;1.90;;;5.10;96.70;;;;;;5026649;28;20195;-78
2022/02/02 06:27:09;;;;;;;4.37;2.20;;;5.00;97.20;;;;;;5033803;28;20226;-83
2022/02/02 06:29:41;;;;;;;6.03;2.30;;;4.90;97.70;;;;;;5034140;28;20657;-82
2022/02/02 06:32:14;;;;;;;6.93;2.47;;;4.90;98.20;;;;;;5025724;28;20702;-80
2022/02/02 06:34:44;;;;;;;4.83;2.83;;;4.80;98.40;;;;;;5025675;28;20253;-84
2022/02/02 06:37:11;;;;;;;6.57;3.03;;;4.70;98.90;;;;;;5028136;28;20225;-82
2022/02/02 06:39:39;;;;;;;12.53;2.90;;;4.70;99.40;;;;;;5025174;28;20289;-80
2022/02/02 06:42:10;;;;;;;7.30;3.30;;;4.70;99.80;;;;;;5028030;28;20226;-82
2022/02/02 06:44:38;;;;;;;10.37;3.67;;;4.70;99.90;;;;;;5029057;28;20233;-80
2022/02/02 06:47:05;;;;;;;7.07;2.90;;;4.70;99.90;;;;;;5032508;28;20314;-79
2022/02/02 06:49:32;;;;;;;3.80;2.03;;;4.60;99.90;;;;;;5034928;28;20650;-80
2022/02/02 06:52:17;;;;;;;5.13;1.70;;;4.40;99.90;;;;;;5034180;28;20230;-80
2022/02/02 06:54:54;;;;;;;5.00;2.03;;;4.30;99.50;;;;;;5027592;28;20606;-78
2022/02/02 06:57:37;;;;;;;4.17;2.10;;;4.20;99.60;;;;;;5033832;28;20590;-81
2022/02/02 07:00:13;;;;;;;8.27;2.40;;;4.20;99.80;;;;;;5034054;28;20206;-83
2022/02/02 07:02:52;;;;;;;7.53;2.90;;;4.20;99.90;;;;;;5023430;28;20226;-80
2022/02/02 07:05:31;;;;;;;8.90;3.10;;;4.20;99.90;;;;;;5027625;28;20191;-80
2022/02/02 07:08:22;;;;;;;10.70;3.20;;;4.20;99.90;;;;;;5032842;28;20262;-77
2022/02/02 07:11:05;;;;;;;9.37;3.00;;;4.20;99.90;;;;;;5033728;28;20210;-80
2022/02/02 07:13:45;;;;;;;10.87;3.93;;;4.20;99.90;;;;;;5032767;28;20223;-80
2022/02/02 07:16:27;;;;;;;8.77;3.00;;;4.30;99.90;;;;;;5032409;28;20197;-79
2022/02/02 07:19:07;;;;;;;9.77;3.27;;;4.30;99.90;;;;;;5022896;28;20311;-82
2022/02/02 07:22:02;;;;;;;11.40;3.23;;;4.40;99.90;;;;;;5032428;28;20207;-81
2022/02/02 07:27:36;;;;;;;9.93;2.50;;;4.30;99.90;;;;;;5033879;28;20225;-79
2022/02/02 07:30:14;;;;;;;12.53;2.83;;;4.30;99.40;;;;;;5032633;28;20191;-77
2022/02/02 07:32:48;;;;;;;15.10;2.70;;;4.40;98.70;;;;;;5023039;28;20222;-79
2022/02/02 07:35:22;;;;;;;11.10;3.00;;;4.40;98.10;;;;;;5025239;28;20205;-80
2022/02/02 07:37:56;;;;;;;12.83;2.83;;;4.50;98.00;;;;;;5014427;28;20238;-79
2022/02/02 07:40:24;;;;;;;9.33;2.23;;;4.50;97.70;;;;;;5017263;28;20222;-83
2022/02/02 07:42:53;;;;;;;14.10;2.80;;;4.40;98.00;;;;;;5017439;28;20625;-79
2022/02/02 07:45:22;;;;;;;10.47;2.40;;;4.50;97.90;;;;;;5021452;28;20199;-79
2022/02/02 07:47:57;;;;;;;12.37;2.67;;;4.50;97.60;;;;;;5022953;28;20215;-79
2022/02/02 07:50:27;;;;;;;6.67;2.20;;;4.50;97.90;;;;;;5030485;28;20208;-78
2022/02/02 07:52:57;;;;;;;9.87;2.53;;;4.60;98.10;;;;;;5026484;28;20238;-79
2022/02/02 07:55:28;;;;;;;8.30;2.27;;;4.50;98.10;;;;;;5030850;28;20198;-79
2022/02/02 07:57:59;;;;;;;6.87;2.40;;;4.60;98.20;;;;;;5017741;28;20219;-81
2022/02/02 08:00:27;;;;;;;9.10;2.70;;;4.70;98.30;;;;;;5023658;28;20229;-82
2022/02/02 08:03:03;;;;;;;8.40;2.27;;;4.70;98.10;;;;;;5026608;28;20239;-78
2022/02/02 08:05:37;;;;;;;11.37;2.47;;;4.60;98.40;;;;;;5026520;28;22082;-80
2022/02/02 08:08:13;;;;;;;9.27;2.53;;;4.60;99.10;;;;;;5032010;28;20230;-81
2022/02/02 08:10:41;;;;;;;7.07;2.33;;;4.60;99.20;;;;;;5031388;28;20230;-78
2022/02/02 08:13:13;;;;;;;10.07;2.50;;;4.80;98.40;;;;;;5030417;28;20284;-79
2022/02/02 08:15:42;;;;;;;10.43;2.77;;;4.80;97.90;;;;;;5025658;28;20756;-79
2022/02/02 08:18:09;;;;;;;13.53;3.10;;;4.90;97.70;;;;;;5031652;28;20222;-81
2022/02/02 08:20:36;;;;;;;7.87;2.53;;;4.90;97.70;;;;;;5029397;28;20294;-79
2022/02/02 08:23:03;;;;;;;10.63;2.70;;;4.90;97.70;;;;;;5023035;28;20576;-80
2022/02/02 08:25:32;;;;;;;11.47;3.07;;;4.90;97.70;;;;;;5023071;28;20198;-79
2022/02/02 08:28:04;;;;;;;9.60;2.53;;;4.90;97.30;;;;;;5024518;28;20868;-86
2022/02/02 08:30:36;;;;;;;17.97;3.87;;;4.90;96.80;;;;;;5026390;28;20221;-79
2022/02/02 08:33:07;;;;;;;14.40;2.83;;;4.90;97.00;;;;;;5031162;28;20598;-81
2022/02/02 08:35:41;;;;;;;9.40;2.93;;;5.00;96.70;;;;;;5024502;28;20205;-79
2022/02/02 08:38:32;;;;;;;15.17;2.97;;;4.90;96.40;;;;;;5019783;28;20307;-79
2022/02/02 08:41:04;;;;;;;16.00;3.87;;;5.00;95.70;;;;;;5021467;28;20222;-79
2022/02/02 08:43:38;;;;;;;13.77;2.93;;;5.10;95.10;;;;;;5020160;28;20713;-79
2022/02/02 08:46:08;;;;;;;11.47;3.10;;;5.20;95.10;;;;;;5027472;28;20203;-83
2022/02/02 08:48:40;;;;;;;12.60;3.20;;;5.20;95.10;;;;;;5028614;28;20227;-79
2022/02/02 08:51:11;;;;;;;17.43;3.40;;;5.20;94.70;;;;;;5031080;28;20210;-80
2022/02/02 08:53:49;;;;;;;13.87;2.97;;;5.30;94.70;;;;;;5030468;28;20861;-85
2022/02/02 08:56:38;;;;;;;14.63;3.63;;;5.30;94.80;;;;;;5030142;28;20232;-81
2022/02/02 08:59:09;;;;;;;12.17;3.17;;;5.40;94.40;;;;;;5031186;28;20222;-81
2022/02/02 09:01:38;;;;;;;14.57;3.47;;;5.80;93.90;;;;;;5031915;28;20662;-82
2022/02/02 09:06:51;;;;;;;12.33;3.03;;;6.60;91.40;;;;;;5033196;28;20261;-83
2022/02/02 09:09:44;;;;;;;13.80;2.87;;;7.30;90.10;;;;;;5070937;28;20289;-81
2022/02/02 09:21:00;;;;;;;15.47;3.20;;;6.50;91.00;;;;;;5017554;28;20233;-81
2022/02/02 09:31:25;;;;;;;12.07;3.00;;;6.60;91.00;;;;;;5012618;28;20207;-79
2022/02/02 09:34:52;;;;;;;12.00;3.17;;;6.90;90.00;;;;;;4998746;28;20387;-84
2022/02/02 09:37:22;;;;;;;12.85;2.97;;;7.00;90.10;;;;;;5034972;28;20234;-80
2022/02/02 09:39:58;;;;;;;13.55;3.20;;;7.00;90.00;;;;;;5037560;28;20289;-83
2022/02/02 09:42:26;;;;;;;9.35;3.00;;;7.00;90.50;;;;;;5032763;28;20260;-86
2022/02/02 09:44:57;;;;;;;7.53;2.53;;;6.90;90.60;;;;;;5033880;28;20200;-83
2022/02/02 09:47:25;;;;;;;13.82;3.63;;;7.30;90.10;;;;;;5030578;28;20241;-82
2022/02/02 10:10:53;;;;;;;15.10;3.80;;;7.50;83.30;;;;;;5789071;22;20244;-83
2022/02/02 10:13:25;;;;;;;11.98;3.10;;;7.10;87.20;;;;;;5055614;28;20595;-81
2022/02/02 10:18:37;;;;;;;14.35;3.38;;;7.10;90.10;;;;;;5062431;28;20217;-82
2022/02/02 10:21:04;;;;;;;12.00;3.40;;;6.80;90.00;;;;;;5078755;28;20283;-82
2022/02/02 10:23:33;;;;;;;15.25;2.88;;;6.50;92.10;;;;;;5066261;28;20228;-81
2022/02/02 10:26:17;;;;;;;12.80;3.00;;;6.40;92.70;;;;;;5056301;28;20202;-79
2022/02/02 10:28:44;;;;;;;12.17;3.13;;;6.40;92.70;;;;;;5055257;28;20236;-78
2022/02/02 10:31:12;;;;;;;10.87;2.97;;;6.40;93.10;;;;;;5072617;28;20668;-79
2022/02/02 10:33:39;;;;;;;13.00;3.53;;;6.30;92.90;;;;;;5066428;28;20233;-84
2022/02/02 10:36:13;;;;;;;13.20;3.50;;;6.30;93.70;;;;;;5058830;28;20225;-79
2022/02/02 10:38:47;;;;;;;10.63;3.03;;;6.30;93.20;;;;;;5070177;28;20227;-81
2022/02/02 10:41:26;;;;;;;13.03;3.73;;;6.40;92.70;;;;;;5065619;28;20193;-81
2022/02/02 10:43:56;;;;;;;8.20;3.00;;;6.40;92.30;;;;;;5061494;28;20221;-81
2022/02/02 10:46:31;;;;;;;14.35;3.20;;;6.50;92.10;;;;;;5061412;28;20215;-81
2022/02/02 10:49:11;;;;;;;13.73;2.90;;;6.40;91.80;;;;;;5056828;28;20635;-79
2022/02/02 10:51:42;;;;;;;15.05;3.03;;;6.30;91.90;;;;;;5059678;28;20214;-81
2022/02/02 10:54:29;;;;;;;14.77;3.53;;;6.40;91.60;;;;;;5055009;28;20210;-79
2022/02/02 10:57:10;;;;;;;15.47;3.50;;;6.40;91.50;;;;;;5045768;28;20976;-79
2022/02/02 11:07:49;;;;;;;13.60;3.20;;;6.60;90.30;;;;;;5057497;28;20278;-78
2022/02/02 11:14:03;;;;;;;10.37;2.70;;;6.60;90.00;;;;;;5055913;28;20241;-79
2022/02/02 11:16:34;;;;;;;12.60;3.60;;;6.60;90.00;;;;;;5053605;28;20277;-79
2022/02/02 11:19:04;;;;;;;16.00;3.47;;;6.50;90.10;;;;;;5057427;28;20200;-79
2022/02/02 11:21:35;;;;;;;13.03;3.50;;;6.40;90.60;;;;;;5056949;28;20213;-78
2022/02/02 11:24:16;;;;;;;13.70;3.27;;;6.40;90.70;;;;;;5068429;28;20217;-78
2022/02/02 11:26:44;;;;;;;10.93;3.33;;;6.40;90.70;;;;;;5055531;28;20198;-78
2022/02/02 11:29:40;;;;;;;15.87;4.00;;;6.40;90.70;;;;;;5053418;28;20677;-79
2022/02/02 11:32:08;;;;;;;12.27;3.43;;;6.40;90.80;;;;;;5069977;28;20239;-80
2022/02/02 11:34:35;;;;;;;16.73;3.23;;;6.40;90.30;;;;;;5065125;28;20210;-82
2022/02/02 11:37:22;;;;;;;15.17;3.43;;;6.50;90.70;;;;;;5054415;28;20234;-78
2022/02/02 11:40:08;;;;;;;16.00;3.50;;;6.50;89.90;;;;;;5045383;28;20195;-80
2022/02/02 11:42:52;;;;;;;15.37;3.17;;;6.60;90.00;;;;;;5058164;28;20229;-80
2022/02/02 11:45:51;;;;;;;14.47;3.40;;;6.60;90.00;;;;;;5061820;28;20292;-80
2022/02/02 11:49:08;;;;;;;14.77;3.30;;;6.70;90.00;;;;;;5044639;28;20793;-80
2022/02/02 11:51:39;;;;;;;12.07;2.93;;;6.70;87.40;;;;;;5002401;28;20231;-79
2022/02/02 11:54:08;;;;;;;12.30;3.50;;;6.80;87.10;;;;;;5042860;28;20207;-78
2022/02/02 11:57:20;;;;;;;13.60;3.53;;;6.80;87.70;;;;;;5054845;28;20190;-80
2022/02/02 12:03:41;;;;;;;13.98;3.40;;;7.10;87.50;;;;;;5039238;28;20210;-81
2022/02/02 12:06:23;;;;;;;11.95;3.08;;;7.10;86.70;;;;;;5040356;28;20212;-80
2022/02/02 12:08:59;;;;;;;13.23;3.15;;;7.10;86.70;;;;;;5046019;28;20261;-78
2022/02/02 12:47:58;;;;;;;13.75;2.88;;;7.30;86.60;;;;;;5072592;28;20181;-81
2022/02/02 12:56:51;;;;;;;9.57;2.10;;;7.40;82.10;;;;;;5056156;28;20763;-80
2022/02/02 12:59:42;;;;;;;9.67;2.40;;;7.10;81.20;;;;;;5051727;28;20222;-79
2022/02/02 13:02:12;;;;;;;10.60;2.63;;;6.90;83.10;;;;;;5050919;28;20240;-79
2022/02/02 13:04:41;;;;;;;9.17;2.20;;;7.00;83.20;;;;;;5064662;28;20756;-79
2022/02/02 13:07:09;;;;;;;10.17;2.70;;;7.00;83.60;;;;;;5044265;28;20237;-79
2022/02/02 13:09:37;;;;;;;9.73;2.87;;;7.20;82.50;;;;;;5033410;28;20210;-78
2022/02/02 13:12:27;;;;;;;10.53;3.17;;;7.40;81.60;;;;;;5039152;28;20643;-79
2022/02/02 13:15:10;;;;;;;10.90;3.10;;;7.40;81.60;;;;;;5053732;28;20244;-78
2022/02/02 13:17:51;;;;;;;16.20;3.57;;;7.20;82.70;;;;;;5054152;28;20243;-80
2022/02/02 13:23:41;;;;;;;12.00;3.37;;;7.30;83.70;;;;;;5055771;28;20223;-78
2022/02/02 13:26:14;;;;;;;13.53;3.40;;;7.00;84.10;;;;;;5053966;28;20224;-80
2022/02/02 13:29:07;;;;;;;10.60;2.97;;;7.00;85.80;;;;;;5054245;28;20200;-81
2022/02/02 13:31:56;;;;;;;12.50;3.53;;;6.90;86.00;;;;;;5052362;28;20237;-79
2022/02/02 13:34:41;;;;;;;16.67;3.53;;;6.70;87.80;;;;;;5048562;28;20625;-78
2022/02/02 13:37:36;;;;;;;15.43;3.67;;;6.60;90.00;;;;;;5074293;28;20237;-81
2022/02/02 13:47:10;;;;;;;16.87;3.50;;;6.70;90.30;;;;;;5053360;28;20240;-80
2022/02/02 13:49:56;;;;;;;12.50;3.77;;;6.60;88.90;;;;;;5033087;28;20222;-79
2022/02/02 13:52:50;;;;;;;12.83;3.23;;;6.50;89.90;;;;;;5053889;28;20796;-80
2022/02/02 13:56:13;;;;;;;13.30;3.40;;;6.60;90.00;;;;;;5029811;28;20701;-80
2022/02/02 13:58:46;;;;;;;16.23;3.73;;;6.60;90.40;;;;;;5039783;28;20210;-81
2022/02/02 14:01:32;;;;;;;14.23;4.10;;;6.60;90.50;;;;;;5073193;28;20264;-80
2022/02/02 14:04:17;;;;;;;15.73;4.03;;;6.60;90.60;;;;;;5073364;28;20210;-81
2022/02/02 14:06:53;;;;;;;13.00;3.70;;;6.80;90.00;;;;;;5071976;28;20243;-81
2022/02/02 14:09:27;;;;;;;14.68;4.18;;;6.90;90.00;;;;;;5061692;28;20197;-81
2022/02/02 14:31:11;;;;;;;11.90;2.40;;;6.30;90.40;;;;;;5064723;28;20204;-78
2022/02/02 14:33:39;;;;;;;8.53;2.30;;;6.20;90.20;;;;;;5055364;28;20245;-78
2022/02/02 14:36:10;;;;;;;7.17;2.53;;;6.20;89.70;;;;;;5057802;28;20290;-79
2022/02/02 14:38:43;;;;;;;10.70;2.93;;;6.20;90.20;;;;;;5053494;28;20229;-78
2022/02/02 14:41:17;;;;;;;6.60;2.23;;;6.30;90.20;;;;;;5078407;28;20209;-81
2022/02/02 14:47:09;;;;;;;9.57;3.40;;;6.30;90.40;;;;;;5056351;28;20701;-78
2022/02/02 14:55:24;;;;;;;10.07;2.40;;;6.50;87.10;;;;;;5018305;28;20227;-80
2022/02/02 15:28:14;;;;;;;11.97;2.93;;;5.30;95.20;;;;;;4983899;28;20218;-81
2022/02/02 15:30:51;;;;;;;12.90;3.00;;;5.30;95.10;;;;;;5007935;28;20253;-82
2022/02/02 15:33:22;;;;;;;7.37;3.27;;;5.40;95.20;;;;;;5000783;28;20327;-81
2022/02/02 15:36:02;;;;;;;9.57;3.20;;;5.50;95.20;;;;;;5005024;28;20245;-81
2022/02/02 15:38:30;;;;;;;7.83;3.20;;;5.50;94.90;;;;;;5012255;28;20223;-83
2022/02/02 15:41:01;;;;;;;8.97;2.87;;;5.60;94.50;;;;;;5022544;28;20245;-84
2022/02/02 15:43:37;;;;;;;10.67;3.47;;;5.60;94.00;;;;;;5012159;28;20238;-83
2022/02/02 16:05:47;;;;;;;9.83;2.67;;;6.10;82.00;;;;;;5128103;27;20611;-80
2022/02/02 16:08:16;;;;;;;9.37;2.53;;;6.10;80.90;;;;;;5104622;27;20872;-79
2022/02/02 16:10:51;;;;;;;9.93;2.70;;;6.10;79.40;;;;;;5079694;28;20201;-81
2022/02/02 16:13:35;;;;;;;9.47;2.83;;;6.10;80.10;;;;;;5099630;28;20238;-83
2022/02/02 16:16:12;;;;;;;11.17;2.50;;;6.00;80.00;;;;;;5098601;28;20192;-81
2022/02/02 16:18:49;;;;;;;10.53;2.53;;;6.10;79.40;;;;;;5086874;28;20227;-85
2022/02/02 16:32:44;;;;;;;10.60;3.03;;;5.60;82.70;;;;;;5102587;28;20297;-81
2022/02/02 16:35:43;;;;;;;10.17;2.70;;;5.50;82.70;;;;;;5089074;28;20193;-82
2022/02/02 16:38:19;;;;;;;12.17;3.00;;;5.40;83.60;;;;;;5102786;28;20220;-83
2022/02/02 16:40:49;;;;;;;9.97;3.00;;;5.50;83.10;;;;;;5105072;28;20665;-80
2022/02/02 16:43:18;;;;;;;9.80;2.80;;;5.50;83.00;;;;;;5093079;28;20228;-80
2022/02/02 16:45:49;;;;;;;11.40;3.00;;;5.60;82.20;;;;;;5089699;28;20201;-80
2022/02/02 16:48:17;;;;;;;7.60;2.93;;;5.50;82.90;;;;;;5097861;28;20227;-79
2022/02/02 16:50:47;;;;;;;9.23;3.53;;;5.50;83.20;;;;;;5085271;28;20197;-81
2022/02/02 16:53:25;;;;;;;8.80;3.30;;;5.50;83.10;;;;;;5097586;28;20293;-81
2022/02/02 16:55:58;;;;;;;12.73;2.93;;;5.60;82.60;;;;;;5101606;28;20693;-84
2022/02/02 17:31:23;;;;;;;8.53;2.60;;;5.50;80.80;;;;;;5072395;28;20224;-79
2022/02/02 17:33:54;;;;;;;12.07;3.20;;;5.40;83.00;;;;;;5080278;28;20217;-80
2022/02/02 17:36:27;;;;;;;9.43;3.10;;;5.30;85.00;;;;;;5075280;28;20247;-81
2022/02/02 17:38:57;;;;;;;12.27;3.47;;;5.30;88.50;;;;;;5067989;28;20232;-80
2022/02/02 17:41:56;;;;;;;8.63;3.80;;;5.20;89.10;;;;;;5068583;28;20190;-81
2022/02/02 17:45:00;;;;;;;9.47;3.37;;;5.00;90.50;;;;;;5023016;28;20235;-80
2022/02/02 18:12:50;;;;;;;11.53;3.30;;;5.20;93.00;;;;;;5060264;28;20279;-77
2022/02/02 18:20:50;;;;;;;9.93;3.00;;;5.00;94.00;;;;;;5043182;28;20193;-83
2022/02/02 18:23:24;;;;;;;9.93;3.10;;;5.00;94.40;;;;;;5051195;28;20225;-82
2022/02/02 18:26:00;;;;;;;10.10;3.57;;;5.00;94.20;;;;;;5050408;28;20229;-83
2022/02/02 18:28:34;;;;;;;15.13;3.80;;;5.10;93.90;;;;;;5046714;28;20714;-80
2022/02/02 18:31:20;;;;;;;13.60;3.80;;;5.10;93.90;;;;;;5046786;28;20672;-82
2022/02/02 18:33:52;;;;;;;10.17;3.50;;;5.00;94.10;;;;;;5052271;28;20307;-82
2022/02/02 18:36:36;;;;;;;11.30;3.80;;;4.90;94.50;;;;;;5052227;28;20194;-82
2022/02/02 18:45:04;;;;;;;13.53;3.70;;;5.10;94.50;;;;;;5042262;28;20299;-81
2022/02/02 18:47:42;;;;;;;11.37;3.80;;;5.20;94.60;;;;;;5065086;28;20766;-81
2022/02/02 18:50:21;;;;;;;12.83;4.23;;;5.20;95.10;;;;;;5070771;28;20277;-81
2022/02/02 18:55:46;;;;;;;13.73;3.97;;;5.00;96.00;;;;;;5042162;28;20556;-81
2022/02/02 18:58:28;;;;;;;14.37;3.83;;;5.00;96.30;;;;;;5061718;28;20221;-80
2022/02/02 19:01:11;;;;;;;12.27;3.77;;;5.10;96.60;;;;;;5065941;28;20194;-81
2022/02/02 19:37:50;;;;;;;13.43;4.30;;;4.20;98.90;;;;;;5029353;28;20728;-85
2022/02/02 19:40:21;;;;;;;11.30;3.63;;;4.20;99.50;;;;;;5022090;28;20187;-81
2022/02/02 19:56:55;;;;;;;13.07;4.50;;;4.10;99.90;;;;;;5031057;28;20277;-83
2022/02/02 20:05:20;;;;;;;9.37;4.40;;;4.30;99.70;;;;;;5047394;28;20271;-81
2022/02/02 20:08:06;;;;;;;11.87;4.10;;;4.40;99.50;;;;;;5058956;28;20251;-84
2022/02/02 20:10:41;;;;;;;11.83;4.20;;;4.40;99.30;;;;;;5068532;28;20196;-81
2022/02/02 20:13:08;;;;;;;12.50;4.27;;;4.40;99.30;;;;;;5069986;28;20946;-81
2022/02/02 20:15:39;;;;;;;11.17;4.10;;;4.40;99.30;;;;;;5066279;28;20679;-80
2022/02/02 20:18:07;;;;;;;8.87;4.10;;;4.40;99.60;;;;;;5061792;28;20228;-80
2022/02/02 20:20:39;;;;;;;13.00;3.97;;;4.40;99.70;;;;;;5079851;28;20199;-80
2022/02/02 20:23:07;;;;;;;12.40;4.20;;;4.50;99.80;;;;;;5074521;28;20217;-80
2022/02/02 20:25:37;;;;;;;8.00;4.30;;;4.50;99.40;;;;;;5068960;28;20312;-81
2022/02/02 20:28:06;;;;;;;10.10;4.17;;;4.50;99.60;;;;;;5079123;28;20680;-80
2022/02/02 20:30:34;;;;;;;11.93;4.30;;;4.60;99.40;;;;;;5068571;28;20201;-83
2022/02/02 20:33:02;;;;;;;13.13;4.20;;;4.60;99.40;;;;;;5073608;28;20304;-82
2022/02/02 20:35:29;;;;;;;12.27;4.40;;;4.60;99.40;;;;;;5069525;28;20757;-80
2022/02/02 20:37:56;;;;;;;12.43;4.60;;;4.60;99.30;;;;;;5073371;28;20225;-80
2022/02/02 20:43:45;;;;;;;5.60;3.80;;;4.80;99.00;;;;;;5066376;28;20730;-83
2022/02/02 20:46:31;;;;;;;8.57;4.00;;;4.70;99.10;;;;;;5063881;28;20217;-80
2022/02/02 21:00:29;;;;;;;10.13;4.27;;;4.90;98.60;;;;;;5076748;28;20203;-81
2022/02/02 21:03:17;;;;;;;8.93;3.80;;;4.90;98.70;;;;;;5066972;28;20221;-83
2022/02/02 21:05:54;;;;;;;7.63;3.77;;;4.80;99.00;;;;;;5069980;28;20286;-82
2022/02/02 21:08:42;;;;;;;12.83;4.50;;;4.80;98.90;;;;;;5073012;28;20221;-80
2022/02/02 21:11:31;;;;;;;10.73;4.10;;;4.90;99.10;;;;;;5076942;28;20201;-80
2022/02/02 21:13:57;;;;;;;12.93;4.63;;;4.80;99.10;;;;;;5071978;28;20667;-80
2022/02/02 21:16:37;;;;;;;13.23;4.57;;;4.90;99.20;;;;;;5072419;28;20291;-83
2022/02/02 21:19:08;;;;;;;9.33;3.87;;;4.90;99.10;;;;;;5075631;28;20222;-80
2022/02/02 21:21:46;;;;;;;8.90;3.80;;;4.90;99.20;;;;;;5084789;28;20760;-82
2022/02/02 21:27:16;;;;;;;9.20;4.27;;;5.00;99.00;;;;;;5042451;28;20237;-80
2022/02/02 21:29:46;;;;;;;8.57;4.03;;;5.00;98.60;;;;;;5049302;28;20194;-80
2022/02/02 21:32:39;;;;;;;9.10;3.97;;;4.90;97.90;;;;;;5060726;28;20228;-80
2022/02/02 21:35:16;;;;;;;9.53;4.33;;;4.90;97.80;;;;;;5062537;28;20281;-86
2022/02/02 21:37:45;;;;;;;11.47;4.60;;;4.80;98.10;;;;;;5066666;28;20569;-79
2022/02/02 21:40:19;;;;;;;11.73;4.60;;;4.80;98.50;;;;;;5072437;28;20207;-81
2022/02/02 21:42:47;;;;;;;7.27;4.20;;;4.80;98.40;;;;;;5073523;28;20627;-80
2022/02/02 21:45:15;;;;;;;8.07;4.40;;;4.80;98.70;;;;;;5070255;28;20221;-81
2022/02/02 21:47:45;;;;;;;7.93;4.37;;;4.70;99.00;;;;;;5071919;28;20221;-83
2022/02/02 21:50:16;;;;;;;6.97;3.90;;;4.80;99.20;;;;;;5074023;28;20217;-82
2022/02/02 21:52:43;;;;;;;10.53;4.13;;;4.80;99.20;;;;;;5066756;28;20237;-80